createdAt,value
2022-12-16T00:01:35.725Z,54.63
2022-12-16T00:04:02.885Z,50.25
2022-12-16T00:06:32.359Z,44.70
2022-12-16T00:09:00.564Z,53.83
2022-12-16T00:11:28.438Z,44.97
2022-12-16T00:13:55.437Z,49.47
2022-12-16T00:16:22.673Z,46.38
2022-12-16T00:18:49.848Z,52.58
2022-12-16T00:21:20.141Z,47.53
2022-12-16T00:23:47.837Z,52.85
2022-12-16T00:26:14.881Z,49.67
2022-12-16T00:28:43.709Z,49.75
2022-12-16T00:31:11.369Z,55.45
2022-12-16T00:33:38.934Z,58.65
2022-12-16T00:36:07.797Z,52.10
2022-12-16T00:38:35.943Z,54.08
2022-12-16T00:41:03.320Z,53.67
2022-12-16T00:43:30.737Z,57.33
2022-12-16T00:45:58.196Z,54.25
2022-12-16T00:48:25.610Z,51.33
2022-12-16T00:50:54.933Z,52.47
2022-12-16T00:53:23.923Z,51.85
2022-12-16T00:55:51.733Z,51.50
2022-12-16T00:58:19.059Z,50.35
2022-12-16T01:00:46.242Z,45.50
2022-12-16T01:03:17.963Z,48.15
2022-12-16T01:05:48.661Z,57.38
2022-12-16T01:08:15.640Z,57.17
2022-12-16T01:10:42.654Z,58.22
2022-12-16T01:13:09.879Z,53.28
2022-12-16T01:15:37.646Z,48.30
2022-12-16T01:18:07.853Z,57.03
2022-12-16T01:20:36.048Z,47.30
2022-12-16T01:23:03.019Z,56.35
2022-12-16T01:25:30.167Z,54.80
2022-12-16T01:27:57.356Z,53.83
2022-12-16T01:30:24.819Z,52.28
2022-12-16T01:32:51.809Z,50.38
2022-12-16T01:35:51.508Z,53.47
2022-12-16T01:38:09.674Z,47.63
2022-12-16T01:40:36.814Z,50.90
2022-12-16T01:43:12.486Z,54.83
2022-12-16T01:45:39.920Z,54.08
2022-12-16T01:48:14.884Z,54.35
2022-12-16T01:50:42.602Z,51.85
2022-12-16T01:53:10.020Z,50.25
2022-12-16T01:55:46.745Z,53.05
2022-12-16T01:58:21.002Z,47.78
2022-12-16T02:00:48.628Z,47.15
2022-12-16T02:03:16.322Z,37.63
2022-12-16T02:05:45.907Z,36.75
2022-12-16T02:08:15.881Z,38.80
2022-12-16T02:10:42.809Z,44.40
2022-12-16T02:13:40.995Z,34.17
2022-12-16T02:16:18.774Z,33.17
2022-12-16T02:18:57.911Z,34.90
2022-12-16T02:21:30.769Z,40.67
2022-12-16T02:24:33.183Z,45.00
2022-12-16T02:27:19.208Z,30.45
2022-12-16T02:30:17.416Z,24.55
2022-12-16T02:33:22.257Z,26.40
2022-12-16T02:36:11.045Z,29.95
2022-12-16T02:38:59.754Z,26.63
2022-12-16T02:41:42.326Z,28.50
2022-12-16T02:44:11.742Z,34.97
2022-12-16T02:46:53.099Z,27.58
2022-12-16T02:49:22.433Z,29.83
2022-12-16T02:51:50.027Z,28.30
2022-12-16T02:54:17.908Z,34.83
2022-12-16T02:56:52.652Z,33.67
2022-12-16T02:59:47.396Z,30.35
2022-12-16T03:02:30.429Z,36.55
2022-12-16T03:05:18.516Z,36.72
2022-12-16T03:07:48.479Z,38.50
2022-12-16T03:10:19.488Z,35.80
2022-12-16T03:12:47.058Z,37.67
2022-12-16T03:15:19.684Z,33.92
2022-12-16T03:17:49.167Z,36.80
2022-12-16T03:20:21.948Z,44.30
2022-12-16T03:22:52.193Z,34.43
2022-12-16T03:25:21.231Z,37.60
2022-12-16T03:27:59.002Z,38.10
2022-12-16T03:30:42.107Z,42.25
2022-12-16T03:33:21.795Z,35.25
2022-12-16T03:36:02.262Z,35.33
2022-12-16T03:38:32.530Z,36.67
2022-12-16T03:41:01.372Z,36.28
2022-12-16T03:43:28.579Z,42.92
2022-12-16T03:46:01.837Z,34.80
2022-12-16T03:48:28.944Z,37.58
2022-12-16T03:50:56.012Z,33.33
2022-12-16T03:53:26.389Z,38.38
2022-12-16T03:55:54.545Z,39.42
2022-12-16T03:58:21.891Z,40.60
2022-12-16T04:00:49.029Z,37.28
2022-12-16T04:03:16.274Z,40.15
2022-12-16T04:05:45.869Z,39.05
2022-12-16T04:08:13.064Z,36.78
2022-12-16T04:10:58.401Z,38.88
2022-12-16T04:13:43.735Z,37.42
2022-12-16T04:16:34.981Z,36.72
2022-12-16T04:19:21.792Z,33.90
2022-12-16T04:22:07.648Z,48.00
2022-12-16T04:24:36.817Z,34.50
2022-12-16T04:27:22.771Z,44.10
2022-12-16T04:30:08.366Z,40.95
2022-12-16T04:32:54.472Z,37.97
2022-12-16T04:35:40.206Z,32.70
2022-12-16T04:38:26.155Z,41.58
2022-12-16T04:41:12.085Z,39.20
2022-12-16T04:43:58.481Z,37.53
2022-12-16T04:46:43.986Z,36.45
2022-12-16T04:49:29.903Z,46.45
2022-12-16T04:52:15.827Z,48.85
2022-12-16T04:55:01.761Z,38.80
2022-12-16T04:57:47.149Z,43.35
2022-12-16T05:00:33.191Z,32.75
2022-12-16T05:03:18.694Z,34.65
2022-12-16T05:06:04.382Z,36.38
2022-12-16T05:08:49.719Z,32.80
2022-12-16T05:11:35.740Z,38.90
2022-12-16T05:14:21.859Z,34.85
2022-12-16T05:17:07.711Z,38.40
2022-12-16T05:19:54.824Z,36.05
2022-12-16T05:22:40.916Z,35.47
2022-12-16T05:25:27.254Z,35.78
2022-12-16T05:28:13.170Z,35.28
2022-12-16T05:30:59.191Z,35.58
2022-12-16T05:33:44.678Z,37.17
2022-12-16T05:36:30.017Z,34.15
2022-12-16T05:39:23.422Z,33.97
2022-12-16T05:42:09.906Z,30.10
2022-12-16T05:44:55.242Z,27.60
2022-12-16T05:47:40.964Z,32.20
2022-12-16T05:50:26.934Z,36.67
2022-12-16T05:53:14.406Z,38.60
2022-12-16T05:56:01.385Z,40.08
2022-12-16T05:58:47.769Z,36.88
2022-12-16T06:01:33.528Z,29.95
2022-12-16T06:04:19.626Z,34.63
2022-12-16T06:07:06.956Z,34.58
2022-12-16T06:09:56.531Z,32.30
2022-12-16T06:12:43.066Z,29.10
2022-12-16T06:15:32.066Z,28.42
2022-12-16T06:18:17.534Z,31.27
2022-12-16T06:21:03.047Z,33.13
2022-12-16T06:23:48.735Z,37.42
2022-12-16T06:26:35.309Z,26.70
2022-12-16T06:29:20.820Z,26.67
2022-12-16T06:32:06.725Z,30.52
2022-12-16T06:34:52.258Z,33.15
2022-12-16T06:37:37.670Z,31.02
2022-12-16T06:40:23.769Z,34.97
2022-12-16T06:43:09.140Z,33.22
2022-12-16T06:45:55.501Z,33.42
2022-12-16T06:48:44.502Z,27.95
2022-12-16T06:51:30.056Z,36.40
2022-12-16T06:54:15.326Z,31.45
2022-12-16T06:57:00.736Z,26.02
2022-12-16T06:59:46.324Z,30.58
2022-12-16T07:02:31.768Z,27.52
2022-12-16T07:05:17.183Z,31.25
2022-12-16T07:08:10.419Z,32.88
2022-12-16T07:11:03.394Z,29.60
2022-12-16T07:13:55.149Z,31.83
2022-12-16T07:16:41.292Z,35.92
2022-12-16T07:19:26.765Z,28.23
2022-12-16T07:22:12.381Z,28.00
2022-12-16T07:24:57.789Z,28.48
2022-12-16T07:27:43.289Z,35.53
2022-12-16T07:30:30.125Z,27.95
2022-12-16T07:33:15.499Z,28.95
2022-12-16T07:36:01.799Z,25.02
2022-12-16T07:38:47.228Z,23.83
2022-12-16T07:41:32.672Z,25.33
2022-12-16T07:44:18.351Z,25.17
2022-12-16T07:47:03.625Z,24.48
2022-12-16T07:49:49.679Z,21.63
2022-12-16T07:52:35.424Z,20.77
2022-12-16T07:55:21.028Z,22.27
2022-12-16T07:58:10.276Z,15.68
2022-12-16T08:00:55.625Z,20.05
2022-12-16T08:03:41.860Z,18.95
2022-12-16T08:06:27.436Z,19.23
2022-12-16T08:09:13.208Z,19.88
2022-12-16T08:11:58.629Z,23.92
2022-12-16T08:14:44.107Z,20.20
2022-12-16T08:17:29.912Z,21.20
2022-12-16T08:20:15.889Z,26.45
2022-12-16T08:23:01.354Z,29.88
2022-12-16T08:25:47.359Z,24.20
2022-12-16T08:28:33.337Z,27.05
2022-12-16T08:31:19.013Z,20.80
2022-12-16T08:34:04.873Z,13.40
2022-12-16T08:36:51.496Z,13.50
2022-12-16T08:39:37.036Z,20.80
2022-12-16T08:42:23.029Z,14.60
2022-12-16T08:45:08.451Z,14.60
2022-12-16T08:47:55.451Z,12.77
2022-12-16T08:50:41.754Z,13.60
2022-12-16T08:53:47.497Z,15.27
2022-12-16T08:56:33.400Z,9.88
2022-12-16T08:59:19.231Z,16.55
2022-12-16T09:02:05.963Z,11.68
2022-12-16T09:04:52.073Z,12.45
2022-12-16T09:07:41.453Z,13.10
2022-12-16T09:10:27.226Z,14.32
2022-12-16T09:13:12.713Z,14.95
2022-12-16T09:15:58.598Z,14.00
2022-12-16T09:18:44.399Z,16.92
2022-12-16T09:21:33.211Z,7.20
2022-12-16T09:24:19.499Z,18.33
2022-12-16T09:27:06.347Z,8.73
2022-12-16T09:29:51.773Z,14.93
2022-12-16T09:32:39.343Z,19.00
2022-12-16T09:35:26.275Z,13.45
2022-12-16T09:38:12.262Z,13.18
2022-12-16T09:41:00.428Z,8.23
2022-12-16T09:43:50.217Z,11.85
2022-12-16T09:46:50.299Z,9.27
2022-12-16T09:49:55.024Z,10.43
2022-12-16T09:52:43.054Z,11.15
2022-12-16T09:55:45.243Z,9.55
2022-12-16T09:58:32.174Z,10.70
2022-12-16T10:01:18.406Z,8.75
2022-12-16T10:04:04.192Z,9.15
2022-12-16T10:06:56.550Z,11.52
2022-12-16T10:10:04.021Z,14.50
2022-12-16T10:13:17.796Z,9.88
2022-12-16T10:16:12.943Z,12.13
2022-12-16T10:19:11.110Z,9.52
2022-12-16T10:22:06.769Z,10.93
2022-12-16T10:25:03.048Z,8.07
2022-12-16T10:28:02.334Z,10.95
2022-12-16T10:30:48.477Z,10.95
2022-12-16T10:33:35.716Z,11.88
2022-12-16T10:36:21.917Z,12.18
2022-12-16T10:39:19.535Z,14.27
2022-12-16T10:42:10.507Z,9.55
2022-12-16T10:44:59.339Z,16.13
2022-12-16T10:47:44.687Z,14.13
2022-12-16T10:50:33.657Z,8.30
2022-12-16T10:53:23.680Z,9.02
2022-12-16T10:56:46.548Z,12.07
2022-12-16T10:59:32.720Z,11.57
2022-12-16T11:02:22.130Z,15.88
2022-12-16T11:05:08.768Z,13.48
2022-12-16T11:08:08.751Z,14.35
2022-12-16T11:11:02.573Z,13.52
2022-12-16T11:13:53.955Z,12.88
2022-12-16T11:16:48.059Z,16.95
2022-12-16T11:19:45.412Z,18.15
2022-12-16T11:22:36.417Z,18.10
2022-12-16T11:25:31.191Z,18.17
2022-12-16T11:28:36.526Z,21.05
2022-12-16T11:31:32.133Z,20.23
2022-12-16T11:34:21.090Z,18.05
2022-12-16T11:37:11.035Z,20.83
2022-12-16T11:39:58.733Z,22.88
2022-12-16T11:42:50.314Z,32.30
2022-12-16T11:45:39.243Z,19.15
2022-12-16T11:48:55.283Z,23.83
2022-12-16T11:51:43.060Z,24.95
2022-12-16T11:54:38.114Z,25.13
2022-12-16T11:57:33.704Z,23.10
2022-12-16T12:00:21.115Z,20.60
2022-12-16T12:03:09.369Z,26.65
2022-12-16T12:06:07.446Z,31.65
2022-12-16T12:09:26.928Z,27.88
2022-12-16T12:12:31.428Z,29.90
2022-12-16T12:15:47.322Z,27.95
2022-12-16T12:18:42.274Z,25.67
2022-12-16T12:21:43.983Z,21.98
2022-12-16T12:25:13.618Z,21.85
2022-12-16T12:28:14.392Z,26.63
2022-12-16T12:31:18.838Z,22.88
2022-12-16T12:34:25.541Z,32.53
2022-12-16T12:37:26.130Z,26.52
2022-12-16T12:40:22.847Z,23.55
2022-12-16T12:43:13.670Z,28.70
2022-12-16T12:46:40.974Z,30.88
2022-12-16T12:49:45.639Z,24.92
2022-12-16T12:56:07.229Z,28.73
2022-12-16T12:58:55.552Z,31.77
2022-12-16T13:01:49.248Z,30.55
2022-12-16T13:04:38.688Z,30.00
2022-12-16T13:07:30.049Z,31.17
2022-12-16T13:10:39.253Z,31.83
2022-12-16T13:13:34.773Z,27.88
2022-12-16T13:16:23.519Z,25.95
2022-12-16T13:19:47.797Z,27.73
2022-12-16T13:22:48.849Z,30.85
2022-12-16T13:26:09.225Z,35.15
2022-12-16T13:28:58.781Z,32.90
2022-12-16T13:31:47.034Z,31.80
2022-12-16T13:34:38.525Z,33.63
2022-12-16T13:37:31.179Z,26.92
2022-12-16T13:40:37.064Z,30.58
2022-12-16T13:43:24.065Z,28.75
2022-12-16T13:46:15.985Z,29.25
2022-12-16T13:49:01.954Z,35.60
2022-12-16T13:51:56.622Z,32.58
2022-12-16T13:54:51.522Z,34.25
2022-12-16T13:57:40.367Z,28.92
2022-12-16T14:00:37.539Z,29.55
2022-12-16T14:03:30.867Z,30.27
2022-12-16T14:06:18.726Z,30.33
2022-12-16T14:09:08.522Z,30.08
2022-12-16T14:12:43.722Z,27.92
2022-12-16T14:15:44.740Z,34.60
2022-12-16T14:19:21.481Z,26.98
2022-12-16T14:22:18.783Z,28.75
2022-12-16T14:25:05.701Z,27.48
2022-12-16T14:27:53.735Z,23.52
2022-12-16T14:30:42.906Z,32.20
2022-12-16T14:33:44.127Z,28.35
2022-12-16T14:36:45.039Z,32.85
2022-12-16T14:39:41.558Z,27.80
2022-12-16T14:42:46.822Z,33.90
2022-12-16T14:45:38.549Z,33.10
2022-12-16T14:48:42.085Z,28.92
2022-12-16T14:51:57.040Z,32.80
2022-12-16T14:54:56.141Z,30.27
2022-12-16T14:57:45.140Z,30.90
2022-12-16T15:00:32.522Z,34.42
2022-12-16T15:03:18.307Z,29.65
2022-12-16T15:06:05.916Z,26.60
2022-12-16T15:08:55.856Z,35.85
2022-12-16T15:11:43.466Z,36.75
2022-12-16T15:14:35.632Z,29.08
2022-12-16T15:17:21.954Z,39.22
2022-12-16T15:20:11.381Z,37.38
2022-12-16T15:23:05.993Z,38.85
2022-12-16T15:25:52.016Z,37.75
2022-12-16T15:29:07.337Z,37.92
2022-12-16T15:32:03.330Z,33.28
2022-12-16T15:35:06.292Z,34.22
2022-12-16T15:38:04.274Z,35.08
2022-12-16T15:40:53.030Z,35.47
2022-12-16T15:43:41.961Z,39.97
2022-12-16T15:46:38.490Z,30.88
2022-12-16T15:49:35.781Z,33.85
2022-12-16T15:52:21.725Z,46.28
2022-12-16T15:55:11.239Z,35.22
2022-12-16T15:57:57.650Z,32.70
2022-12-16T16:00:46.614Z,40.70
2022-12-16T16:03:39.098Z,38.20
2022-12-16T16:06:37.623Z,34.55
2022-12-16T16:09:32.957Z,36.90
2022-12-16T16:12:18.562Z,37.25
2022-12-16T16:15:04.133Z,42.25
2022-12-16T16:17:50.118Z,37.80
2022-12-16T16:20:37.202Z,44.53
2022-12-16T16:23:23.186Z,41.45
2022-12-16T16:26:08.855Z,36.45
2022-12-16T16:28:57.769Z,41.00
2022-12-16T16:31:43.891Z,38.70
2022-12-16T16:34:32.670Z,43.67
2022-12-16T16:37:18.365Z,51.55
2022-12-16T16:40:04.424Z,38.40
2022-12-16T16:42:50.518Z,43.15
2022-12-16T16:45:39.049Z,45.45
2022-12-16T16:48:33.681Z,43.55
2022-12-16T16:51:20.657Z,49.17
2022-12-16T16:54:07.828Z,48.22
2022-12-16T16:56:56.351Z,42.60
2022-12-16T16:59:42.732Z,45.33
2022-12-16T17:02:42.630Z,40.47
2022-12-16T17:05:32.076Z,42.38
2022-12-16T17:08:17.987Z,44.80
2022-12-16T17:11:06.792Z,47.38
2022-12-16T17:13:52.786Z,34.53
2022-12-16T17:16:39.334Z,45.60
2022-12-16T17:19:30.701Z,46.25
2022-12-16T17:34:51.813Z,39.35
2022-12-16T17:37:41.138Z,34.47
2022-12-16T17:40:27.824Z,39.55
2022-12-16T17:43:13.345Z,43.47
2022-12-16T17:46:01.828Z,36.78
2022-12-16T17:48:47.334Z,40.30
2022-12-16T17:51:32.892Z,41.47
2022-12-16T17:54:25.003Z,43.05
2022-12-16T17:57:13.618Z,41.00
2022-12-16T17:59:59.794Z,40.60
2022-12-16T18:02:46.084Z,47.05
2022-12-16T18:05:38.835Z,48.38
2022-12-16T18:08:29.438Z,37.47
2022-12-16T18:11:16.549Z,42.70
2022-12-16T18:14:16.211Z,39.63
2022-12-16T18:17:01.624Z,47.58
2022-12-16T18:19:47.484Z,43.75
2022-12-16T18:22:35.610Z,42.17
2022-12-16T18:25:21.435Z,46.47
2022-12-16T18:28:11.926Z,41.25
2022-12-16T18:30:57.670Z,50.20
2022-12-16T18:33:43.276Z,39.45
2022-12-16T18:36:29.291Z,42.10
2022-12-16T18:39:14.839Z,47.17
2022-12-16T18:42:06.242Z,48.67
2022-12-16T18:44:57.543Z,51.42
2022-12-16T18:47:46.774Z,48.08
2022-12-16T18:50:37.485Z,51.95
2022-12-16T18:53:41.933Z,54.75
2022-12-16T18:56:28.320Z,46.83
2022-12-16T18:59:14.042Z,52.20
2022-12-16T19:01:59.965Z,49.22
2022-12-16T19:04:45.906Z,47.97
2022-12-16T19:07:33.750Z,47.58
2022-12-16T19:10:20.163Z,47.20
2022-12-16T19:13:07.380Z,50.45
2022-12-16T19:15:53.139Z,49.00
2022-12-16T19:18:38.971Z,51.75
2022-12-16T19:21:25.555Z,53.58
2022-12-16T19:24:11.500Z,47.78
2022-12-16T19:26:57.364Z,48.55
2022-12-16T19:29:43.581Z,51.05
2022-12-16T19:32:29.765Z,53.97
2022-12-16T19:35:15.278Z,49.67
2022-12-16T19:38:00.996Z,49.10
2022-12-16T19:40:46.817Z,53.17
2022-12-16T19:43:32.598Z,47.08
2022-12-16T19:46:18.472Z,50.63
2022-12-16T19:49:04.778Z,56.17
2022-12-16T19:51:51.932Z,51.40
2022-12-16T19:54:37.879Z,51.40
2022-12-16T19:57:23.763Z,49.25
2022-12-16T20:00:09.907Z,46.80
2022-12-16T20:02:56.705Z,52.13
2022-12-16T20:05:42.971Z,48.28
2022-12-16T20:08:28.833Z,53.13
2022-12-16T20:11:14.917Z,57.22
2022-12-16T20:14:00.718Z,51.40
2022-12-16T20:16:46.957Z,53.13
2022-12-16T20:19:32.924Z,47.60
2022-12-16T20:22:18.965Z,56.63
2022-12-16T20:25:04.449Z,51.90
2022-12-16T20:27:49.727Z,53.60
2022-12-16T20:30:36.977Z,54.13
2022-12-16T20:33:23.031Z,51.13
2022-12-16T20:36:19.625Z,55.13
2022-12-16T20:39:07.225Z,56.78
2022-12-16T20:41:56.115Z,58.10
2022-12-16T20:44:42.255Z,55.90
2022-12-16T20:47:28.270Z,53.67
2022-12-16T20:50:14.148Z,62.47
2022-12-16T20:52:59.948Z,58.55
2022-12-16T20:55:45.886Z,57.55
2022-12-16T20:58:36.770Z,61.72
2022-12-16T21:01:23.218Z,57.85
2022-12-16T21:04:09.123Z,66.65
2022-12-16T21:06:56.060Z,66.93
2022-12-16T21:09:46.611Z,54.88
2022-12-16T21:12:32.285Z,56.55
2022-12-16T21:15:18.075Z,64.18
2022-12-16T21:18:04.068Z,60.95
2022-12-16T21:20:49.801Z,62.13
2022-12-16T21:23:35.942Z,63.60
2022-12-16T21:26:21.743Z,72.38
2022-12-16T21:29:07.909Z,58.03
2022-12-16T21:31:53.576Z,52.78
2022-12-16T21:34:39.304Z,58.72
2022-12-16T21:37:26.230Z,62.95
2022-12-16T21:40:11.622Z,73.05
2022-12-16T21:42:57.328Z,62.30
2022-12-16T21:45:42.989Z,69.88
2022-12-16T21:48:30.104Z,67.82
2022-12-16T21:51:15.533Z,73.15
2022-12-16T21:54:06.371Z,67.40
2022-12-16T21:56:53.200Z,57.42
2022-12-16T21:59:42.525Z,65.30
2022-12-16T22:02:31.975Z,64.95
2022-12-16T22:05:17.711Z,54.70
2022-12-16T22:08:03.424Z,63.33
2022-12-16T22:10:49.015Z,57.05
2022-12-16T22:13:36.064Z,64.55
2022-12-16T22:16:22.132Z,63.20
2022-12-16T22:19:14.303Z,60.47
2022-12-16T22:21:59.715Z,57.63
2022-12-16T22:24:45.062Z,60.03
2022-12-16T22:27:30.510Z,53.67
2022-12-16T22:30:15.947Z,60.53
2022-12-16T22:33:01.716Z,58.35
2022-12-16T22:35:47.182Z,49.97
2022-12-16T22:38:32.593Z,56.45
2022-12-16T22:41:19.229Z,50.30
2022-12-16T22:44:06.234Z,52.30
2022-12-16T22:47:08.842Z,61.72
2022-12-16T22:49:56.037Z,56.40
2022-12-16T22:52:42.163Z,63.60
2022-12-16T22:55:27.730Z,51.28
2022-12-16T22:58:13.955Z,60.50
2022-12-16T23:01:04.019Z,52.92
2022-12-16T23:03:56.506Z,65.10
2022-12-16T23:06:43.772Z,52.92
2022-12-16T23:09:30.358Z,52.97
2022-12-16T23:12:16.377Z,46.33
2022-12-16T23:15:02.086Z,44.15
2022-12-16T23:17:47.648Z,53.05
2022-12-16T23:20:33.353Z,44.33
2022-12-16T23:23:18.934Z,48.53
2022-12-16T23:26:17.634Z,49.50
2022-12-16T23:29:03.442Z,50.15
2022-12-16T23:31:49.046Z,43.72
2022-12-16T23:34:34.583Z,50.22
2022-12-16T23:37:20.060Z,47.83
2022-12-16T23:40:07.640Z,56.80
2022-12-16T23:42:53.057Z,53.55
2022-12-16T23:45:41.675Z,46.03
2022-12-16T23:48:28.663Z,49.70
2022-12-16T23:51:14.632Z,49.97
2022-12-16T23:54:00.563Z,49.25
2022-12-16T23:56:46.119Z,49.50
2022-12-16T23:59:32.098Z,49.90
